sensor_id;sensor_type;location;lat;lon;timestamp;pressure;altitude;pressure_sealevel;temperature;humidity
43814;BME280;29669;55.706;37.656;2023-01-29T00:02:15;100180.97;;;-0.29;nan
43814;BME280;29669;55.706;37.656;2023-01-29T00:04:42;100187.06;;;-0.32;nan
43814;BME280;29669;55.706;37.656;2023-01-29T00:07:10;100186.31;;;-0.34;nan
43814;BME280;29669;55.706;37.656;2023-01-29T00:09:38;100176.19;;;-0.35;nan
43814;BME280;29669;55.706;37.656;2023-01-29T00:12:06;100176.44;;;-0.40;nan
43814;BME280;29669;55.706;37.656;2023-01-29T00:14:36;100180.84;;;-0.42;nan
43814;BME280;29669;55.706;37.656;2023-01-29T00:17:04;100178.53;;;-0.46;nan
43814;BME280;29669;55.706;37.656;2023-01-29T00:19:31;100176.94;;;-0.49;nan
43814;BME280;29669;55.706;37.656;2023-01-29T00:21:59;100172.44;;;-0.44;nan
43814;BME280;29669;55.706;37.656;2023-01-29T00:24:26;100162.91;;;-0.40;nan
43814;BME280;29669;55.706;37.656;2023-01-29T00:26:54;100169.63;;;-0.39;nan
43814;BME280;29669;55.706;37.656;2023-01-29T00:31:51;100166.00;;;-0.35;nan
43814;BME280;29669;55.706;37.656;2023-01-29T00:36:46;100163.53;;;-0.37;nan
43814;BME280;29669;55.706;37.656;2023-01-29T00:39:16;100166.19;;;-0.38;nan
43814;BME280;29669;55.706;37.656;2023-01-29T00:41:44;100161.88;;;-0.38;nan
43814;BME280;29669;55.706;37.656;2023-01-29T00:44:30;100159.41;;;-0.39;nan
43814;BME280;29669;55.706;37.656;2023-01-29T00:50:07;100146.75;;;-0.41;nan
43814;BME280;29669;55.706;37.656;2023-01-29T00:55:07;100141.84;;;-0.44;nan
43814;BME280;29669;55.706;37.656;2023-01-29T01:00:07;100146.03;;;-0.58;nan
43814;BME280;29669;55.706;37.656;2023-01-29T01:02:35;100153.13;;;-0.63;nan
43814;BME280;29669;55.706;37.656;2023-01-29T01:05:22;100164.25;;;-0.64;nan
43814;BME280;29669;55.706;37.656;2023-01-29T01:07:51;100151.00;;;-0.71;nan
43814;BME280;29669;55.706;37.656;2023-01-29T01:10:26;100153.53;;;-0.71;nan
43814;BME280;29669;55.706;37.656;2023-01-29T01:12:59;100157.66;;;-0.68;nan
43814;BME280;29669;55.706;37.656;2023-01-29T01:18:01;100151.88;;;-0.72;nan
43814;BME280;29669;55.706;37.656;2023-01-29T01:20:30;100146.97;;;-0.75;nan
43814;BME280;29669;55.706;37.656;2023-01-29T01:22:58;100154.44;;;-0.72;nan
43814;BME280;29669;55.706;37.656;2023-01-29T01:25:26;100151.16;;;-0.74;nan
43814;BME280;29669;55.706;37.656;2023-01-29T01:27:56;100161.38;;;-0.74;nan
43814;BME280;29669;55.706;37.656;2023-01-29T01:30:24;100153.72;;;-0.74;nan
43814;BME280;29669;55.706;37.656;2023-01-29T01:32:53;100157.47;;;-0.81;nan
43814;BME280;29669;55.706;37.656;2023-01-29T01:35:21;100155.00;;;-0.82;nan
43814;BME280;29669;55.706;37.656;2023-01-29T01:37:48;100145.97;;;-0.88;nan
43814;BME280;29669;55.706;37.656;2023-01-29T01:40:19;100153.78;;;-0.91;nan
43814;BME280;29669;55.706;37.656;2023-01-29T01:42:51;100150.72;;;-0.98;nan
43814;BME280;29669;55.706;37.656;2023-01-29T01:45:29;100145.63;;;-0.98;nan
43814;BME280;29669;55.706;37.656;2023-01-29T01:51:02;100138.56;;;-0.93;nan
43814;BME280;29669;55.706;37.656;2023-01-29T01:53:46;100143.84;;;-0.96;nan
43814;BME280;29669;55.706;37.656;2023-01-29T01:58:47;100131.19;;;-0.97;nan
43814;BME280;29669;55.706;37.656;2023-01-29T02:01:16;100135.03;;;-0.90;nan
43814;BME280;29669;55.706;37.656;2023-01-29T02:03:49;100126.34;;;-0.86;nan
43814;BME280;29669;55.706;37.656;2023-01-29T02:06:40;100121.47;;;-0.90;nan
43814;BME280;29669;55.706;37.656;2023-01-29T02:09:31;100112.53;;;-0.98;nan
43814;BME280;29669;55.706;37.656;2023-01-29T02:12:09;100128.56;;;-0.96;nan
43814;BME280;29669;55.706;37.656;2023-01-29T02:14:39;100112.44;;;-0.96;nan
43814;BME280;29669;55.706;37.656;2023-01-29T02:17:28;100112.44;;;-0.96;nan
43814;BME280;29669;55.706;37.656;2023-01-29T02:20:21;100114.84;;;-0.93;nan
43814;BME280;29669;55.706;37.656;2023-01-29T02:29:06;100096.72;;;-0.88;nan
43814;BME280;29669;55.706;37.656;2023-01-29T02:31:58;100094.38;;;-0.91;nan
43814;BME280;29669;55.706;37.656;2023-01-29T02:34:49;100091.81;;;-0.91;nan
43814;BME280;29669;55.706;37.656;2023-01-29T02:37:47;100086.16;;;-0.97;nan
43814;BME280;29669;55.706;37.656;2023-01-29T02:52:08;100064.03;;;-0.96;nan
43814;BME280;29669;55.706;37.656;2023-01-29T03:02:19;100045.53;;;-1.00;nan
43814;BME280;29669;55.706;37.656;2023-01-29T03:07:34;100054.56;;;-0.94;nan
43814;BME280;29669;55.706;37.656;2023-01-29T03:10:34;100042.66;;;-0.93;nan
43814;BME280;29669;55.706;37.656;2023-01-29T03:13:11;100028.88;;;-0.89;nan
43814;BME280;29669;55.706;37.656;2023-01-29T03:15:48;100042.25;;;-0.86;nan
43814;BME280;29669;55.706;37.656;2023-01-29T03:18:47;100036.16;;;-0.83;nan
43814;BME280;29669;55.706;37.656;2023-01-29T03:21:24;100026.63;;;-0.80;nan
43814;BME280;29669;55.706;37.656;2023-01-29T03:24:12;100031.63;;;-0.78;nan
43814;BME280;29669;55.706;37.656;2023-01-29T03:27:07;100032.09;;;-0.72;nan
43814;BME280;29669;55.706;37.656;2023-01-29T03:29:56;100017.47;;;-0.68;nan
43814;BME280;29669;55.706;37.656;2023-01-29T03:32:55;100012.28;;;-0.67;nan
43814;BME280;29669;55.706;37.656;2023-01-29T03:35:30;99999.22;;;-0.61;nan
43814;BME280;29669;55.706;37.656;2023-01-29T03:38:09;99992.75;;;-0.52;nan
43814;BME280;29669;55.706;37.656;2023-01-29T03:40:55;99990.09;;;-0.51;nan
43814;BME280;29669;55.706;37.656;2023-01-29T03:43:35;99991.66;;;-0.48;nan
43814;BME280;29669;55.706;37.656;2023-01-29T03:54:27;99962.34;;;-0.41;nan
43814;BME280;29669;55.706;37.656;2023-01-29T03:57:11;99968.09;;;-0.38;nan
43814;BME280;29669;55.706;37.656;2023-01-29T03:59:50;99958.72;;;-0.37;nan
43814;BME280;29669;55.706;37.656;2023-01-29T04:02:50;99956.91;;;-0.35;nan
43814;BME280;29669;55.706;37.656;2023-01-29T04:05:26;99948.34;;;-0.34;nan
43814;BME280;29669;55.706;37.656;2023-01-29T04:10:44;99948.41;;;-0.36;nan
43814;BME280;29669;55.706;37.656;2023-01-29T04:15:51;99943.41;;;-0.37;nan
43814;BME280;29669;55.706;37.656;2023-01-29T04:18:33;99939.41;;;-0.41;nan
43814;BME280;29669;55.706;37.656;2023-01-29T04:21:06;99929.09;;;-0.40;nan
43814;BME280;29669;55.706;37.656;2023-01-29T04:23:35;99934.78;;;-0.35;nan
43814;BME280;29669;55.706;37.656;2023-01-29T04:31:45;99933.06;;;-0.34;nan
43814;BME280;29669;55.706;37.656;2023-01-29T04:34:24;99934.03;;;-0.37;nan
43814;BME280;29669;55.706;37.656;2023-01-29T04:37:06;99929.94;;;-0.39;nan
43814;BME280;29669;55.706;37.656;2023-01-29T04:39:50;99921.38;;;-0.38;nan
43814;BME280;29669;55.706;37.656;2023-01-29T04:51:05;99918.38;;;-0.31;nan
43814;BME280;29669;55.706;37.656;2023-01-29T04:53:44;99912.72;;;-0.36;nan
43814;BME280;29669;55.706;37.656;2023-01-29T04:56:33;99919.38;;;-0.33;nan
43814;BME280;29669;55.706;37.656;2023-01-29T04:59:14;99923.66;;;-0.34;nan
43814;BME280;29669;55.706;37.656;2023-01-29T05:01:44;99912.91;;;-0.39;nan
43814;BME280;29669;55.706;37.656;2023-01-29T05:04:15;99911.25;;;-0.40;nan
43814;BME280;29669;55.706;37.656;2023-01-29T05:06:46;99910.56;;;-0.42;nan
43814;BME280;29669;55.706;37.656;2023-01-29T05:09:15;99901.16;;;-0.41;nan
43814;BME280;29669;55.706;37.656;2023-01-29T05:11:45;99902.50;;;-0.36;nan
43814;BME280;29669;55.706;37.656;2023-01-29T05:14:16;99908.34;;;-0.34;nan
43814;BME280;29669;55.706;37.656;2023-01-29T05:16:50;99911.09;;;-0.37;nan
43814;BME280;29669;55.706;37.656;2023-01-29T05:19:19;99908.53;;;-0.37;nan
43814;BME280;29669;55.706;37.656;2023-01-29T05:21:48;99907.81;;;-0.39;nan
43814;BME280;29669;55.706;37.656;2023-01-29T05:24:21;99917.47;;;-0.44;nan
43814;BME280;29669;55.706;37.656;2023-01-29T05:26:52;99912.44;;;-0.45;nan
43814;BME280;29669;55.706;37.656;2023-01-29T05:29:45;99913.38;;;-0.46;nan
43814;BME280;29669;55.706;37.656;2023-01-29T05:32:14;99910.91;;;-0.48;nan
43814;BME280;29669;55.706;37.656;2023-01-29T05:34:42;99910.91;;;-0.48;nan
43814;BME280;29669;55.706;37.656;2023-01-29T05:37:10;99913.38;;;-0.46;nan
43814;BME280;29669;55.706;37.656;2023-01-29T05:39:40;99907.28;;;-0.44;nan
43814;BME280;29669;55.706;37.656;2023-01-29T05:42:08;99916.75;;;-0.46;nan
43814;BME280;29669;55.706;37.656;2023-01-29T05:44:35;99908.47;;;-0.49;nan
43814;BME280;29669;55.706;37.656;2023-01-29T05:47:05;99910.00;;;-0.47;nan
43814;BME280;29669;55.706;37.656;2023-01-29T05:49:33;99908.25;;;-0.46;nan
43814;BME280;29669;55.706;37.656;2023-01-29T05:52:05;99917.28;;;-0.41;nan
43814;BME280;29669;55.706;37.656;2023-01-29T05:54:32;99910.16;;;-0.36;nan
43814;BME280;29669;55.706;37.656;2023-01-29T05:57:02;99912.47;;;-0.31;nan
43814;BME280;29669;55.706;37.656;2023-01-29T05:59:30;99914.19;;;-0.32;nan
43814;BME280;29669;55.706;37.656;2023-01-29T06:01:58;99913.28;;;-0.31;nan
43814;BME280;29669;55.706;37.656;2023-01-29T06:04:25;99918.19;;;-0.28;nan
43814;BME280;29669;55.706;37.656;2023-01-29T06:06:53;99912.72;;;-0.22;nan
43814;BME280;29669;55.706;37.656;2023-01-29T06:09:21;99916.19;;;-0.23;nan
43814;BME280;29669;55.706;37.656;2023-01-29T06:11:49;99924.56;;;-0.21;nan
43814;BME280;29669;55.706;37.656;2023-01-29T06:14:18;99918.56;;;-0.20;nan
43814;BME280;29669;55.706;37.656;2023-01-29T06:19:15;99916.84;;;-0.19;nan
43814;BME280;29669;55.706;37.656;2023-01-29T06:21:44;99915.56;;;-0.12;nan
43814;BME280;29669;55.706;37.656;2023-01-29T06:24:11;99908.72;;;-0.12;nan
43814;BME280;29669;55.706;37.656;2023-01-29T06:26:40;99896.25;;;-0.16;nan
43814;BME280;29669;55.706;37.656;2023-01-29T06:29:07;99896.03;;;-0.13;nan
43814;BME280;29669;55.706;37.656;2023-01-29T06:31:35;99895.59;;;-0.20;nan
43814;BME280;29669;55.706;37.656;2023-01-29T06:34:06;99903.00;;;-0.29;nan
43814;BME280;29669;55.706;37.656;2023-01-29T06:36:42;99899.06;;;-0.35;nan
43814;BME280;29669;55.706;37.656;2023-01-29T06:39:13;99894.50;;;-0.30;nan
43814;BME280;29669;55.706;37.656;2023-01-29T06:44:08;99893.88;;;-0.19;nan
43814;BME280;29669;55.706;37.656;2023-01-29T06:46:39;99887.66;;;-0.15;nan
43814;BME280;29669;55.706;37.656;2023-01-29T06:49:09;99893.78;;;-0.18;nan
43814;BME280;29669;55.706;37.656;2023-01-29T06:51:38;99892.31;;;-0.22;nan
43814;BME280;29669;55.706;37.656;2023-01-29T06:54:05;99890.50;;;-0.20;nan
43814;BME280;29669;55.706;37.656;2023-01-29T06:56:34;99886.97;;;-0.17;nan
43814;BME280;29669;55.706;37.656;2023-01-29T06:59:07;99876.47;;;-0.13;nan
43814;BME280;29669;55.706;37.656;2023-01-29T07:01:38;99878.53;;;-0.05;nan
43814;BME280;29669;55.706;37.656;2023-01-29T07:04:07;99876.72;;;-0.03;nan
43814;BME280;29669;55.706;37.656;2023-01-29T07:16:25;99862.16;;;0.26;nan
43814;BME280;29669;55.706;37.656;2023-01-29T07:18:53;99865.25;;;0.31;nan
43814;BME280;29669;55.706;37.656;2023-01-29T07:21:24;99873.25;;;0.39;nan
43814;BME280;29669;55.706;37.656;2023-01-29T07:23:52;99861.22;;;0.41;nan
43814;BME280;29669;55.706;37.656;2023-01-29T07:26:19;99857.72;;;0.42;nan
43814;BME280;29669;55.706;37.656;2023-01-29T07:28:47;99863.25;;;0.36;nan
43814;BME280;29669;55.706;37.656;2023-01-29T07:33:42;99857.94;;;0.39;nan
43814;BME280;29669;55.706;37.656;2023-01-29T07:36:11;99855.34;;;0.53;nan
43814;BME280;29669;55.706;37.656;2023-01-29T07:38:39;99863.31;;;0.61;nan
43814;BME280;29669;55.706;37.656;2023-01-29T07:41:08;99864.16;;;0.74;nan
43814;BME280;29669;55.706;37.656;2023-01-29T07:43:36;99856.81;;;0.82;nan
43814;BME280;29669;55.706;37.656;2023-01-29T07:46:04;99860.72;;;0.87;nan
43814;BME280;29669;55.706;37.656;2023-01-29T07:48:31;99850.19;;;0.79;nan
43814;BME280;29669;55.706;37.656;2023-01-29T07:50:59;99854.66;;;0.76;nan
43814;BME280;29669;55.706;37.656;2023-01-29T07:53:33;99851.72;;;0.82;nan
43814;BME280;29669;55.706;37.656;2023-01-29T07:56:06;99848.47;;;0.92;nan
43814;BME280;29669;55.706;37.656;2023-01-29T07:58:34;99833.34;;;1.02;nan
43814;BME280;29669;55.706;37.656;2023-01-29T08:01:06;99822.91;;;1.05;nan
43814;BME280;29669;55.706;37.656;2023-01-29T08:03:36;99829.47;;;1.09;nan
43814;BME280;29669;55.706;37.656;2023-01-29T08:06:07;99817.91;;;1.16;nan
43814;BME280;29669;55.706;37.656;2023-01-29T08:08:36;99821.78;;;1.22;nan
43814;BME280;29669;55.706;37.656;2023-01-29T08:13:32;99832.63;;;1.25;nan
43814;BME280;29669;55.706;37.656;2023-01-29T08:16:03;99824.94;;;1.25;nan
43814;BME280;29669;55.706;37.656;2023-01-29T08:18:37;99823.34;;;1.24;nan
43814;BME280;29669;55.706;37.656;2023-01-29T08:21:15;99811.16;;;1.15;nan
43814;BME280;29669;55.706;37.656;2023-01-29T08:23:42;99811.88;;;1.17;nan
43814;BME280;29669;55.706;37.656;2023-01-29T08:26:10;99812.59;;;1.19;nan
43814;BME280;29669;55.706;37.656;2023-01-29T08:31:18;99803.72;;;1.25;nan
43814;BME280;29669;55.706;37.656;2023-01-29T08:36:20;99805.72;;;1.20;nan
43814;BME280;29669;55.706;37.656;2023-01-29T08:38:48;99814.22;;;1.20;nan
43814;BME280;29669;55.706;37.656;2023-01-29T08:41:17;99811.16;;;1.15;nan
43814;BME280;29669;55.706;37.656;2023-01-29T08:43:45;99810.06;;;1.19;nan
43814;BME280;29669;55.706;37.656;2023-01-29T08:46:18;99817.63;;;1.21;nan
43814;BME280;29669;55.706;37.656;2023-01-29T08:48:45;99804.22;;;1.17;nan
43814;BME280;29669;55.706;37.656;2023-01-29T08:51:15;99820.06;;;1.22;nan
43814;BME280;29669;55.706;37.656;2023-01-29T08:53:44;99809.72;;;1.24;nan
43814;BME280;29669;55.706;37.656;2023-01-29T08:56:15;99802.06;;;1.24;nan
43814;BME280;29669;55.706;37.656;2023-01-29T08:58:42;99802.88;;;1.24;nan
43814;BME280;29669;55.706;37.656;2023-01-29T09:01:12;99792.66;;;1.24;nan
43814;BME280;29669;55.706;37.656;2023-01-29T09:03:45;99801.03;;;1.26;nan
43814;BME280;29669;55.706;37.656;2023-01-29T09:06:13;99787.72;;;1.21;nan
43814;BME280;29669;55.706;37.656;2023-01-29T09:08:43;99793.78;;;1.20;nan
43814;BME280;29669;55.706;37.656;2023-01-29T09:11:10;99786.94;;;1.21;nan
43814;BME280;29669;55.706;37.656;2023-01-29T09:13:38;99784.47;;;1.32;nan
43814;BME280;29669;55.706;37.656;2023-01-29T09:16:05;99786.78;;;1.35;nan
43814;BME280;29669;55.706;37.656;2023-01-29T09:18:39;99785.59;;;1.28;nan
43814;BME280;29669;55.706;37.656;2023-01-29T09:21:07;99783.34;;;1.23;nan
43814;BME280;29669;55.706;37.656;2023-01-29T09:23:39;99789.88;;;1.27;nan
43814;BME280;29669;55.706;37.656;2023-01-29T09:28:37;99774.66;;;1.13;nan
43814;BME280;29669;55.706;37.656;2023-01-29T09:31:08;99781.19;;;1.05;nan
43814;BME280;29669;55.706;37.656;2023-01-29T09:33:36;99780.59;;;1.01;nan
43814;BME280;29669;55.706;37.656;2023-01-29T09:36:04;99766.91;;;1.02;nan
43814;BME280;29669;55.706;37.656;2023-01-29T09:38:34;99756.47;;;1.05;nan
43814;BME280;29669;55.706;37.656;2023-01-29T09:41:06;99759.25;;;1.02;nan
43814;BME280;29669;55.706;37.656;2023-01-29T09:43:39;99746.88;;;0.96;nan
43814;BME280;29669;55.706;37.656;2023-01-29T09:46:22;99747.78;;;0.95;nan
43814;BME280;29669;55.706;37.656;2023-01-29T09:49:22;99736.31;;;1.01;nan
43814;BME280;29669;55.706;37.656;2023-01-29T09:52:07;99748.69;;;1.07;nan
43814;BME280;29669;55.706;37.656;2023-01-29T09:54:59;99757.06;;;1.09;nan
43814;BME280;29669;55.706;37.656;2023-01-29T09:57:41;99745.22;;;1.08;nan
43814;BME280;29669;55.706;37.656;2023-01-29T10:03:20;99740.09;;;0.95;nan
43814;BME280;29669;55.706;37.656;2023-01-29T10:06:20;99726.03;;;1.02;nan
43814;BME280;29669;55.706;37.656;2023-01-29T10:14:25;99714.44;;;1.09;nan
43814;BME280;29669;55.706;37.656;2023-01-29T10:25:14;99697.16;;;1.13;nan
43814;BME280;29669;55.706;37.656;2023-01-29T10:27:49;99686.94;;;1.13;nan
43814;BME280;29669;55.706;37.656;2023-01-29T10:33:05;99665.66;;;1.12;nan
43814;BME280;29669;55.706;37.656;2023-01-29T10:35:39;99668.50;;;1.20;nan
43814;BME280;29669;55.706;37.656;2023-01-29T10:43:52;99653.31;;;1.42;nan
43814;BME280;29669;55.706;37.656;2023-01-29T10:46:30;99640.31;;;1.45;nan
43814;BME280;29669;55.706;37.656;2023-01-29T10:52:38;99629.31;;;1.56;nan
43814;BME280;29669;55.706;37.656;2023-01-29T11:00:38;99623.06;;;1.36;nan
43814;BME280;29669;55.706;37.656;2023-01-29T11:03:17;99628.13;;;1.49;nan
43814;BME280;29669;55.706;37.656;2023-01-29T11:08:52;99612.84;;;1.36;nan
43814;BME280;29669;55.706;37.656;2023-01-29T11:11:25;99608.78;;;1.21;nan
43814;BME280;29669;55.706;37.656;2023-01-29T11:14:01;99610.00;;;1.28;nan
43814;BME280;29669;55.706;37.656;2023-01-29T11:16:43;99604.00;;;1.40;nan
43814;BME280;29669;55.706;37.656;2023-01-29T11:19:13;99604.84;;;1.41;nan
43814;BME280;29669;55.706;37.656;2023-01-29T11:21:57;99605.22;;;1.47;nan
43814;BME280;29669;55.706;37.656;2023-01-29T11:24:26;99604.41;;;1.47;nan
43814;BME280;29669;55.706;37.656;2023-01-29T11:26:56;99597.75;;;1.44;nan
43814;BME280;29669;55.706;37.656;2023-01-29T11:31:59;99602.63;;;1.36;nan
43814;BME280;29669;55.706;37.656;2023-01-29T11:34:29;99607.50;;;1.39;nan
43814;BME280;29669;55.706;37.656;2023-01-29T11:37:02;99596.84;;;1.45;nan
43814;BME280;29669;55.706;37.656;2023-01-29T11:39:31;99597.00;;;1.55;nan
43814;BME280;29669;55.706;37.656;2023-01-29T11:42:00;99596.88;;;1.56;nan
43814;BME280;29669;55.706;37.656;2023-01-29T11:44:40;99596.09;;;1.67;nan
43814;BME280;29669;55.706;37.656;2023-01-29T11:47:18;99586.09;;;1.64;nan
43814;BME280;29669;55.706;37.656;2023-01-29T11:49:47;99591.06;;;1.54;nan
43814;BME280;29669;55.706;37.656;2023-01-29T11:52:20;99584.59;;;1.38;nan
43814;BME280;29669;55.706;37.656;2023-01-29T11:54:56;99580.41;;;1.37;nan
43814;BME280;29669;55.706;37.656;2023-01-29T11:57:37;99586.78;;;1.31;nan
43814;BME280;29669;55.706;37.656;2023-01-29T12:00:23;99591.41;;;1.26;nan
43814;BME280;29669;55.706;37.656;2023-01-29T12:05:34;99579.34;;;1.28;nan
43814;BME280;29669;55.706;37.656;2023-01-29T12:10:39;99578.22;;;1.43;nan
43814;BME280;29669;55.706;37.656;2023-01-29T12:15:47;99570.06;;;1.38;nan
43814;BME280;29669;55.706;37.656;2023-01-29T12:18:31;99578.91;;;1.34;nan
43814;BME280;29669;55.706;37.656;2023-01-29T12:23:33;99572.38;;;1.30;nan
43814;BME280;29669;55.706;37.656;2023-01-29T12:26:09;99572.25;;;1.32;nan
43814;BME280;29669;55.706;37.656;2023-01-29T12:31:39;99563.88;;;1.30;nan
43814;BME280;29669;55.706;37.656;2023-01-29T12:36:55;99565.28;;;1.10;nan
43814;BME280;29669;55.706;37.656;2023-01-29T12:39:25;99572.47;;;1.05;nan
43814;BME280;29669;55.706;37.656;2023-01-29T12:42:09;99572.22;;;1.08;nan
43814;BME280;29669;55.706;37.656;2023-01-29T12:44:45;99570.44;;;0.98;nan
43814;BME280;29669;55.706;37.656;2023-01-29T12:47:32;99562.38;;;0.91;nan
43814;BME280;29669;55.706;37.656;2023-01-29T12:50:09;99562.72;;;0.86;nan
43814;BME280;29669;55.706;37.656;2023-01-29T12:52:51;99574.97;;;0.81;nan
43814;BME280;29669;55.706;37.656;2023-01-29T12:58:03;99577.38;;;0.72;nan
43814;BME280;29669;55.706;37.656;2023-01-29T13:00:34;99565.13;;;0.64;nan
43814;BME280;29669;55.706;37.656;2023-01-29T13:03:28;99566.88;;;0.64;nan
43814;BME280;29669;55.706;37.656;2023-01-29T13:08:29;99568.19;;;0.57;nan
43814;BME280;29669;55.706;37.656;2023-01-29T13:10:59;99569.63;;;0.48;nan
43814;BME280;29669;55.706;37.656;2023-01-29T13:13:35;99558.50;;;0.49;nan
43814;BME280;29669;55.706;37.656;2023-01-29T13:18:39;99562.28;;;0.56;nan
43814;BME280;29669;55.706;37.656;2023-01-29T13:21:16;99553.78;;;0.56;nan
43814;BME280;29669;55.706;37.656;2023-01-29T13:23:49;99559.13;;;0.53;nan
43814;BME280;29669;55.706;37.656;2023-01-29T13:26:18;99541.78;;;0.45;nan
43814;BME280;29669;55.706;37.656;2023-01-29T13:28:54;99548.00;;;0.41;nan
43814;BME280;29669;55.706;37.656;2023-01-29T13:31:29;99544.63;;;0.41;nan
43814;BME280;29669;55.706;37.656;2023-01-29T13:36:42;99542.78;;;0.43;nan
43814;BME280;29669;55.706;37.656;2023-01-29T13:41:51;99539.31;;;0.44;nan
43814;BME280;29669;55.706;37.656;2023-01-29T13:47:22;99529.81;;;0.46;nan
43814;BME280;29669;55.706;37.656;2023-01-29T13:52:45;99528.50;;;0.53;nan
43814;BME280;29669;55.706;37.656;2023-01-29T14:08:43;99541.06;;;0.31;nan
43814;BME280;29669;55.706;37.656;2023-01-29T14:11:32;99523.41;;;0.28;nan
43814;BME280;29669;55.706;37.656;2023-01-29T14:19:49;99504.44;;;0.19;nan
43814;BME280;29669;55.706;37.656;2023-01-29T14:22:25;99505.56;;;0.28;nan
43814;BME280;29669;55.706;37.656;2023-01-29T14:24:59;99506.97;;;0.32;nan
43814;BME280;29669;55.706;37.656;2023-01-29T14:27:31;99487.88;;;0.25;nan
43814;BME280;29669;55.706;37.656;2023-01-29T14:30:06;99500.44;;;0.28;nan
43814;BME280;29669;55.706;37.656;2023-01-29T14:32:38;99500.34;;;0.29;nan
43814;BME280;29669;55.706;37.656;2023-01-29T14:35:28;99496.78;;;0.32;nan
43814;BME280;29669;55.706;37.656;2023-01-29T14:38:04;99498.50;;;0.31;nan
43814;BME280;29669;55.706;37.656;2023-01-29T14:40:32;99499.31;;;0.32;nan
43814;BME280;29669;55.706;37.656;2023-01-29T14:43:07;99492.97;;;0.37;nan
43814;BME280;29669;55.706;37.656;2023-01-29T14:45:38;99506.56;;;0.38;nan
43814;BME280;29669;55.706;37.656;2023-01-29T14:56:03;99498.09;;;0.37;nan
43814;BME280;29669;55.706;37.656;2023-01-29T14:58:50;99486.34;;;0.35;nan
43814;BME280;29669;55.706;37.656;2023-01-29T15:01:32;99494.50;;;0.40;nan
43814;BME280;29669;55.706;37.656;2023-01-29T15:04:11;99492.75;;;0.40;nan
43814;BME280;29669;55.706;37.656;2023-01-29T15:06:47;99492.16;;;0.37;nan
43814;BME280;29669;55.706;37.656;2023-01-29T15:12:17;99494.19;;;0.44;nan
43814;BME280;29669;55.706;37.656;2023-01-29T15:15:02;99493.88;;;0.49;nan
43814;BME280;29669;55.706;37.656;2023-01-29T15:17:51;99487.94;;;0.48;nan
43814;BME280;29669;55.706;37.656;2023-01-29T15:20:33;99497.31;;;0.48;nan
43814;BME280;29669;55.706;37.656;2023-01-29T15:25:52;99484.50;;;0.37;nan
43814;BME280;29669;55.706;37.656;2023-01-29T15:28:24;99475.22;;;0.36;nan
43814;BME280;29669;55.706;37.656;2023-01-29T15:30:54;99486.50;;;0.44;nan
43814;BME280;29669;55.706;37.656;2023-01-29T15:33:22;99485.09;;;0.40;nan
43814;BME280;29669;55.706;37.656;2023-01-29T15:38:32;99497.84;;;0.40;nan
43814;BME280;29669;55.706;37.656;2023-01-29T15:43:41;99502.59;;;0.34;nan
43814;BME280;29669;55.706;37.656;2023-01-29T15:49:13;99495.84;;;0.33;nan
43814;BME280;29669;55.706;37.656;2023-01-29T15:51:47;99487.47;;;0.31;nan
43814;BME280;29669;55.706;37.656;2023-01-29T15:54:18;99491.66;;;0.32;nan
43814;BME280;29669;55.706;37.656;2023-01-29T15:59:28;99477.88;;;0.22;nan
43814;BME280;29669;55.706;37.656;2023-01-29T16:04:26;99481.38;;;0.21;nan
43814;BME280;29669;55.706;37.656;2023-01-29T16:09:27;99467.69;;;0.22;nan
43814;BME280;29669;55.706;37.656;2023-01-29T16:11:57;99474.44;;;0.23;nan
43814;BME280;29669;55.706;37.656;2023-01-29T16:14:31;99458.59;;;0.18;nan
43814;BME280;29669;55.706;37.656;2023-01-29T16:17:29;99460.13;;;0.20;nan
43814;BME280;29669;55.706;37.656;2023-01-29T16:20:20;99464.81;;;0.14;nan
43814;BME280;29669;55.706;37.656;2023-01-29T16:22:56;99471.59;;;0.15;nan
43814;BME280;29669;55.706;37.656;2023-01-29T16:25:27;99464.03;;;0.13;nan
43814;BME280;29669;55.706;37.656;2023-01-29T16:28:02;99458.94;;;0.13;nan
43814;BME280;29669;55.706;37.656;2023-01-29T16:30:30;99461.38;;;0.15;nan
43814;BME280;29669;55.706;37.656;2023-01-29T16:33:03;99471.97;;;0.21;nan
43814;BME280;29669;55.706;37.656;2023-01-29T16:35:34;99473.00;;;0.19;nan
43814;BME280;29669;55.706;37.656;2023-01-29T16:38:12;99463.81;;;0.16;nan
43814;BME280;29669;55.706;37.656;2023-01-29T16:44:30;99454.63;;;0.14;nan
43814;BME280;29669;55.706;37.656;2023-01-29T16:49:56;99456.28;;;0.15;nan
43814;BME280;29669;55.706;37.656;2023-01-29T16:52:30;99453.91;;;0.12;nan
43814;BME280;29669;55.706;37.656;2023-01-29T16:55:18;99465.66;;;0.14;nan
43814;BME280;29669;55.706;37.656;2023-01-29T16:57:52;99456.47;;;0.12;nan
43814;BME280;29669;55.706;37.656;2023-01-29T17:00:28;99459.00;;;0.12;nan
43814;BME280;29669;55.706;37.656;2023-01-29T17:05:33;99443.00;;;0.10;nan
43814;BME280;29669;55.706;37.656;2023-01-29T17:08:03;99445.03;;;0.17;nan
43814;BME280;29669;55.706;37.656;2023-01-29T17:10:32;99450.84;;;0.19;nan
43814;BME280;29669;55.706;37.656;2023-01-29T17:13:03;99441.34;;;0.21;nan
43814;BME280;29669;55.706;37.656;2023-01-29T17:18:19;99437.53;;;0.27;nan
43814;BME280;29669;55.706;37.656;2023-01-29T17:20:48;99421.53;;;0.25;nan
43814;BME280;29669;55.706;37.656;2023-01-29T17:23:18;99425.94;;;0.23;nan
43814;BME280;29669;55.706;37.656;2023-01-29T17:25:46;99430.94;;;0.24;nan
43814;BME280;29669;55.706;37.656;2023-01-29T17:28:16;99421.97;;;0.19;nan
43814;BME280;29669;55.706;37.656;2023-01-29T17:33:31;99418.31;;;0.10;nan
43814;BME280;29669;55.706;37.656;2023-01-29T17:35:59;99433.31;;;0.15;nan
43814;BME280;29669;55.706;37.656;2023-01-29T17:38:27;99441.66;;;0.17;nan
43814;BME280;29669;55.706;37.656;2023-01-29T17:41:10;99430.16;;;0.11;nan
43814;BME280;29669;55.706;37.656;2023-01-29T17:43:43;99425.25;;;0.08;nan
43814;BME280;29669;55.706;37.656;2023-01-29T17:46:13;99425.25;;;0.08;nan
43814;BME280;29669;55.706;37.656;2023-01-29T17:51:14;99427.50;;;0.13;nan
43814;BME280;29669;55.706;37.656;2023-01-29T17:53:42;99415.88;;;0.09;nan
43814;BME280;29669;55.706;37.656;2023-01-29T17:56:23;99419.13;;;0.11;nan